Time;durP1;ratioP1;P1;durP2;ratioP2;P2;SDS_P1;SDS_P2;PMS_P1;PMS_P2;Temp;Humidity;BMP_temperature;BMP_pressure;BME280_temperature;BME280_humidity;BME280_pressure;Samples;Min_cycle;Max_cycle;Signal;HPM_P1;HPM_P2
2022/05/13 00:00:35;;;;;;;7.18;2.35;;;10.80;99.90;;;;;;5053693;28;20044;-46
2022/05/13 00:03:01;;;;;;;6.65;2.50;;;10.80;99.90;;;;;;5053206;28;20037;-45
2022/05/13 00:05:26;;;;;;;6.45;2.65;;;10.70;99.90;;;;;;5051805;28;20033;-49
2022/05/13 00:07:52;;;;;;;6.55;2.85;;;10.70;99.90;;;;;;5052133;28;20471;-48
2022/05/13 00:10:18;;;;;;;5.70;2.95;;;10.70;99.90;;;;;;5052425;28;20037;-46
2022/05/13 00:12:44;;;;;;;4.93;2.58;;;10.70;99.90;;;;;;5056165;28;20167;-45
2022/05/13 00:15:14;;;;;;;4.90;2.47;;;10.60;99.90;;;;;;5062089;28;20470;-46
2022/05/13 00:17:40;;;;;;;4.90;2.50;;;10.60;99.90;;;;;;5060537;28;20127;-47
2022/05/13 00:20:07;;;;;;;4.68;2.80;;;10.60;99.90;;;;;;5062017;28;20112;-46
2022/05/13 00:22:33;;;;;;;4.40;2.60;;;10.60;99.90;;;;;;5065050;28;20100;-46
2022/05/13 00:24:58;;;;;;;6.65;2.67;;;10.60;99.90;;;;;;5054994;28;20048;-45
2022/05/13 00:27:24;;;;;;;8.63;2.50;;;10.50;99.90;;;;;;5062155;28;20043;-45
2022/05/13 00:29:50;;;;;;;6.68;2.85;;;10.60;99.90;;;;;;5062608;28;20501;-45
2022/05/13 00:32:17;;;;;;;7.90;2.45;;;10.60;99.90;;;;;;5060412;28;20067;-47
2022/05/13 00:34:43;;;;;;;5.65;2.28;;;10.50;99.90;;;;;;5056041;28;20090;-48
2022/05/13 00:37:08;;;;;;;4.90;2.95;;;10.50;99.90;;;;;;5060014;28;20056;-49
2022/05/13 00:39:34;;;;;;;3.88;2.30;;;10.40;99.90;;;;;;5056173;28;20047;-47
2022/05/13 00:42:08;;;;;;;5.22;2.35;;;10.40;99.90;;;;;;5057533;28;20060;-47
2022/05/13 00:44:34;;;;;;;6.90;2.55;;;10.40;99.90;;;;;;5057715;28;20482;-47
2022/05/13 00:47:01;;;;;;;4.30;2.55;;;10.40;99.90;;;;;;5057495;28;20068;-47
2022/05/13 00:49:28;;;;;;;7.60;2.53;;;10.40;99.90;;;;;;5070162;28;20619;-49
2022/05/13 00:51:53;;;;;;;5.85;2.60;;;10.40;99.90;;;;;;5064894;28;20299;-49
2022/05/13 00:54:19;;;;;;;4.95;2.70;;;10.40;99.90;;;;;;5058923;28;20052;-45
2022/05/13 00:56:47;;;;;;;7.88;2.38;;;10.30;99.90;;;;;;5057096;28;20143;-46
2022/05/13 00:59:16;;;;;;;6.32;2.80;;;10.40;99.90;;;;;;5054295;28;20040;-45
2022/05/13 01:01:42;;;;;;;5.15;2.35;;;10.30;99.90;;;;;;5060837;28;20044;-45
2022/05/13 01:04:10;;;;;;;5.57;2.47;;;10.30;99.90;;;;;;5056250;28;20033;-48
2022/05/13 01:06:37;;;;;;;7.78;2.70;;;10.30;99.90;;;;;;5055117;28;20037;-45
2022/05/13 01:09:03;;;;;;;6.50;2.63;;;10.30;99.90;;;;;;5056984;28;20032;-44
2022/05/13 01:11:33;;;;;;;5.30;2.40;;;10.30;99.90;;;;;;5057340;28;20065;-45
2022/05/13 01:14:06;;;;;;;5.07;2.10;;;10.30;99.90;;;;;;5058479;28;20040;-44
2022/05/13 01:18:05;;;;;;;6.28;2.42;;;10.20;99.90;;;;;;5043715;28;20403;-47
2022/05/13 01:19:18;;;;;;;4.55;2.20;;;10.20;99.90;;;;;;5061532;28;20487;-45
2022/05/13 01:21:44;;;;;;;8.85;2.80;;;10.20;99.90;;;;;;5061187;28;20105;-46
2022/05/13 01:24:10;;;;;;;3.20;2.20;;;10.30;99.90;;;;;;5056149;28;20051;-45
2022/05/13 01:26:36;;;;;;;8.45;2.53;;;10.30;99.90;;;;;;5069038;28;20403;-45
2022/05/13 01:29:02;;;;;;;5.30;2.20;;;10.40;99.90;;;;;;5055512;28;20136;-46
2022/05/13 01:31:30;;;;;;;5.10;2.30;;;10.40;99.90;;;;;;5054807;28;20500;-46
2022/05/13 01:33:56;;;;;;;;;;;10.50;99.90;;;;;;5060930;28;20414;-46
2022/05/13 01:36:23;;;;;;;7.70;2.28;;;10.60;99.90;;;;;;5058684;28;19920;-47
2022/05/13 01:38:49;;;;;;;6.00;2.50;;;10.60;99.90;;;;;;5061137;28;20051;-46
2022/05/13 01:41:16;;;;;;;5.78;2.05;;;10.70;99.90;;;;;;5056887;28;20036;-47
2022/05/13 01:43:44;;;;;;;5.18;2.20;;;10.70;99.90;;;;;;5062394;28;20069;-45
2022/05/13 01:46:11;;;;;;;4.18;1.98;;;10.70;99.90;;;;;;5055073;28;20653;-45
2022/05/13 01:48:38;;;;;;;3.75;1.98;;;10.70;99.90;;;;;;5058762;28;20033;-45
2022/05/13 01:51:04;;;;;;;5.70;2.35;;;10.80;99.90;;;;;;5052899;28;20435;-45
2022/05/13 01:53:30;;;;;;;6.25;2.28;;;10.80;99.90;;;;;;5061416;28;20043;-46
2022/05/13 01:55:56;;;;;;;5.20;2.20;;;10.80;99.90;;;;;;5060723;28;20063;-47
2022/05/13 01:58:24;;;;;;;6.07;2.33;;;10.80;99.90;;;;;;5060125;28;20384;-47
2022/05/13 02:00:52;;;;;;;5.18;2.17;;;10.80;99.90;;;;;;5057733;28;20048;-47
2022/05/13 02:06:03;;;;;;;5.95;2.45;;;10.80;99.90;;;;;;5057706;28;20142;-47
2022/05/13 02:08:29;;;;;;;4.63;1.92;;;10.80;99.90;;;;;;5056746;28;20055;-48
2022/05/13 02:10:55;;;;;;;9.02;2.13;;;10.80;99.90;;;;;;5057386;28;20143;-46
2022/05/13 02:13:21;;;;;;;4.93;2.20;;;10.80;99.90;;;;;;5061345;28;20527;-46
2022/05/13 02:15:46;;;;;;;6.05;2.28;;;10.70;99.90;;;;;;5055600;28;20069;-46
2022/05/13 02:18:12;;;;;;;6.00;1.85;;;10.70;99.90;;;;;;5058076;28;20080;-50
2022/05/13 02:20:38;;;;;;;4.78;2.17;;;10.70;99.90;;;;;;5059435;28;20506;-45
2022/05/13 02:23:04;;;;;;;4.18;1.88;;;10.70;99.90;;;;;;5054003;28;20404;-46
2022/05/13 02:25:30;;;;;;;7.82;2.55;;;10.70;99.90;;;;;;5055188;28;20051;-47
2022/05/13 02:27:57;;;;;;;7.30;2.10;;;10.60;99.90;;;;;;5054831;28;20040;-46
2022/05/13 02:30:24;;;;;;;5.25;2.30;;;10.60;99.90;;;;;;5058038;28;20041;-46
2022/05/13 02:32:50;;;;;;;4.85;1.85;;;10.50;99.90;;;;;;5057966;28;20534;-45
2022/05/13 02:35:15;;;;;;;5.95;1.92;;;10.40;99.90;;;;;;5053146;28;20124;-46
2022/05/13 02:37:41;;;;;;;6.00;2.08;;;10.40;99.90;;;;;;5054158;28;20120;-47
2022/05/13 02:40:07;;;;;;;7.07;2.78;;;10.40;99.90;;;;;;5056843;28;20052;-47
2022/05/13 02:42:33;;;;;;;3.85;2.00;;;10.30;99.90;;;;;;5056149;28;20503;-49
2022/05/13 02:44:58;;;;;;;4.70;2.08;;;10.30;99.90;;;;;;5054755;28;20037;-47
2022/05/13 02:47:24;;;;;;;5.05;2.00;;;10.30;99.90;;;;;;5057842;28;20130;-46
2022/05/13 02:50:17;;;;;;;5.22;1.98;;;10.30;99.90;;;;;;5055428;28;20033;-48
2022/05/13 02:52:35;;;;;;;5.25;2.20;;;10.30;99.90;;;;;;5056986;28;20473;-47
2022/05/13 02:55:01;;;;;;;4.40;2.17;;;10.30;99.90;;;;;;5056576;28;20041;-47
2022/05/13 02:57:26;;;;;;;5.90;2.17;;;10.30;99.90;;;;;;5060805;28;20044;-45
2022/05/13 02:59:52;;;;;;;6.88;2.20;;;10.30;99.90;;;;;;5057385;28;20047;-46
2022/05/13 03:02:17;;;;;;;6.00;2.92;;;10.30;99.90;;;;;;5056299;28;20037;-50
2022/05/13 03:04:43;;;;;;;5.90;2.00;;;10.30;99.90;;;;;;5037301;28;20048;-47
2022/05/13 03:07:08;;;;;;;6.05;2.20;;;10.20;99.90;;;;;;5053838;28;20033;-46
2022/05/13 03:09:34;;;;;;;6.93;2.63;;;10.30;99.90;;;;;;5056191;28;20131;-49
2022/05/13 03:12:00;;;;;;;8.18;2.70;;;10.20;99.90;;;;;;5061005;28;20398;-49
2022/05/13 03:14:26;;;;;;;6.97;2.53;;;10.20;99.90;;;;;;5055646;28;20106;-51
2022/05/13 03:16:51;;;;;;;5.60;2.38;;;10.20;99.90;;;;;;5058178;28;20041;-48
2022/05/13 03:19:17;;;;;;;5.30;2.20;;;10.10;99.90;;;;;;5057472;28;20037;-46
2022/05/13 03:21:42;;;;;;;5.05;2.40;;;10.10;99.90;;;;;;5061038;28;20487;-46
2022/05/13 03:24:08;;;;;;;5.47;2.60;;;10.10;99.90;;;;;;5055197;28;20036;-50
2022/05/13 03:26:34;;;;;;;6.18;2.55;;;10.10;99.90;;;;;;5058170;28;20037;-49
2022/05/13 03:28:59;;;;;;;7.00;2.40;;;10.20;99.90;;;;;;5059458;28;20076;-47
2022/05/13 03:31:25;;;;;;;5.35;2.40;;;10.20;99.90;;;;;;5056608;28;20044;-47
2022/05/13 03:33:50;;;;;;;7.60;2.67;;;10.20;99.90;;;;;;5057676;28;20132;-48
2022/05/13 03:36:19;;;;;;;7.30;2.53;;;10.20;99.90;;;;;;5052131;28;20059;-48
2022/05/13 03:38:45;;;;;;;7.55;2.80;;;10.30;99.90;;;;;;5058381;28;20033;-47
2022/05/13 03:41:11;;;;;;;7.43;2.63;;;10.30;99.90;;;;;;5064061;28;20119;-46
2022/05/13 03:43:36;;;;;;;7.15;2.25;;;10.30;99.90;;;;;;5061424;28;20037;-46
2022/05/13 03:46:02;;;;;;;8.75;3.60;;;10.40;99.90;;;;;;5056822;28;20041;-49
2022/05/13 03:48:28;;;;;;;7.15;2.78;;;10.40;99.90;;;;;;5056374;28;20036;-50
2022/05/13 03:50:54;;;;;;;10.52;2.40;;;10.40;99.90;;;;;;5058184;28;20101;-49
2022/05/13 03:53:19;;;;;;;8.07;2.47;;;10.50;99.90;;;;;;5063574;28;20412;-49
2022/05/13 03:55:45;;;;;;;6.68;2.60;;;10.50;99.90;;;;;;5059073;28;20040;-48
2022/05/13 03:58:11;;;;;;;10.23;2.85;;;10.50;99.90;;;;;;5054987;28;20147;-49
2022/05/13 04:00:37;;;;;;;5.63;2.40;;;10.60;99.90;;;;;;5054905;28;20503;-46
2022/05/13 04:03:03;;;;;;;8.52;2.53;;;10.60;99.90;;;;;;5053211;28;20509;-46
2022/05/13 04:08:59;;;;;;;10.40;2.78;;;10.70;99.90;;;;;;5053002;28;20048;-47
2022/05/13 04:11:00;;;;;;;8.50;2.70;;;10.70;99.90;;;;;;5054016;28;20037;-46
2022/05/13 04:16:10;;;;;;;7.65;3.30;;;10.80;99.90;;;;;;5054976;28;20146;-46
2022/05/13 04:18:37;;;;;;;9.75;2.97;;;10.80;99.90;;;;;;5062821;28;20044;-46
2022/05/13 04:21:06;;;;;;;11.37;3.20;;;10.90;99.90;;;;;;5056235;28;20093;-44
2022/05/13 04:23:34;;;;;;;10.02;3.20;;;10.80;99.90;;;;;;5053713;28;20406;-48
2022/05/13 04:25:59;;;;;;;11.25;3.10;;;10.90;99.90;;;;;;5056946;28;20036;-48
2022/05/13 04:28:25;;;;;;;13.85;3.70;;;10.90;99.90;;;;;;5057033;28;20055;-48
2022/05/13 04:30:51;;;;;;;10.05;3.40;;;11.00;99.90;;;;;;5054998;28;20117;-46
2022/05/13 04:33:16;;;;;;;9.20;3.33;;;12.60;99.90;;;;;;5055168;28;20516;-49
2022/05/13 04:35:42;;;;;;;12.35;4.07;;;11.00;99.90;;;;;;5055606;28;20045;-49
2022/05/13 04:38:08;;;;;;;10.55;3.42;;;11.00;99.90;;;;;;5065218;28;20041;-50
2022/05/13 04:40:34;;;;;;;10.93;3.80;;;11.10;99.90;;;;;;5058042;28;20028;-47
2022/05/13 04:43:00;;;;;;;10.77;3.40;;;11.20;99.90;;;;;;5052120;28;20399;-47
2022/05/13 04:45:29;;;;;;;9.82;3.55;;;11.20;99.90;;;;;;5053700;28;20431;-50
2022/05/13 04:48:16;;;;;;;9.25;3.40;;;11.20;99.90;;;;;;5054565;28;20147;-47
2022/05/13 04:50:57;;;;;;;11.88;3.50;;;11.30;99.90;;;;;;5059404;28;20064;-45
2022/05/13 04:53:29;;;;;;;14.02;3.75;;;11.30;99.90;;;;;;5052160;28;20694;-49
2022/05/13 04:55:56;;;;;;;15.93;4.60;;;11.40;99.90;;;;;;5059553;28;20040;-49
2022/05/13 04:58:23;;;;;;;11.77;3.67;;;11.40;99.90;;;;;;5066844;28;20062;-50
2022/05/13 05:00:50;;;;;;;10.52;3.55;;;11.40;99.90;;;;;;5057015;28;20103;-49
2022/05/13 05:03:17;;;;;;;12.63;3.70;;;11.40;99.90;;;;;;5060087;28;20037;-48
2022/05/13 05:05:43;;;;;;;14.00;4.30;;;11.40;99.90;;;;;;5061623;28;20040;-51
2022/05/13 05:08:10;;;;;;;8.50;3.90;;;11.40;99.90;;;;;;5056346;28;20385;-48
2022/05/13 05:10:36;;;;;;;11.83;3.50;;;11.50;99.90;;;;;;5055100;28;20124;-47
2022/05/13 05:13:02;;;;;;;14.90;4.05;;;11.60;99.90;;;;;;5067007;28;20032;-50
2022/05/13 05:15:28;;;;;;;9.80;3.42;;;11.70;99.90;;;;;;5065989;28;21437;-47
2022/05/13 05:17:53;;;;;;;14.95;4.68;;;11.70;99.90;;;;;;5068428;28;20426;-52
2022/05/13 05:20:20;;;;;;;12.52;4.30;;;11.80;99.90;;;;;;5054167;28;20041;-49
2022/05/13 05:22:46;;;;;;;14.38;4.20;;;11.80;99.90;;;;;;5059110;28;20041;-48
2022/05/13 05:25:18;;;;;;;13.35;4.07;;;11.90;99.90;;;;;;5064239;28;20041;-48
2022/05/13 05:27:44;;;;;;;14.55;4.35;;;11.90;99.90;;;;;;5070808;28;20052;-51
2022/05/13 05:30:11;;;;;;;15.98;4.28;;;11.90;99.90;;;;;;5053766;28;20037;-49
2022/05/13 05:32:38;;;;;;;15.95;4.30;;;11.90;99.90;;;;;;5053814;28;20063;-50
2022/05/13 05:35:09;;;;;;;13.73;4.00;;;12.00;99.90;;;;;;5053830;28;20136;-49
2022/05/13 05:37:35;;;;;;;18.95;4.55;;;12.00;99.90;;;;;;5066121;28;20048;-46
2022/05/13 05:40:01;;;;;;;16.08;5.00;;;12.20;99.90;;;;;;5073567;28;20039;-53
2022/05/13 05:42:26;;;;;;;13.85;4.05;;;12.40;99.90;;;;;;5078846;28;20463;-47
2022/05/13 05:44:52;;;;;;;26.30;4.65;;;12.60;99.90;;;;;;5094075;28;20505;-48
2022/05/13 05:47:24;;;;;;;24.70;4.85;;;12.70;99.90;;;;;;5072090;28;20044;-48
2022/05/13 05:49:51;;;;;;;14.63;3.53;;;;;;;;;;5073670;28;20044;-47
2022/05/13 05:52:16;;;;;;;12.98;3.90;;;13.10;99.90;;;;;;5059618;28;20065;-46
2022/05/13 05:57:27;;;;;;;15.90;3.90;;;13.10;99.90;;;;;;5079347;28;20117;-51
2022/05/13 05:59:53;;;;;;;23.25;4.13;;;13.20;99.90;;;;;;5093341;28;20043;-48
2022/05/13 06:02:19;;;;;;;14.77;4.00;;;13.70;99.90;;;;;;5070799;28;20060;-48
2022/05/13 06:04:45;;;;;;;14.45;3.88;;;14.80;99.90;;;;;;5084337;28;20029;-48
2022/05/13 06:07:16;;;;;;;13.73;3.75;;;15.60;99.90;;;;;;5060123;28;20407;-49
2022/05/13 06:09:43;;;;;;;20.33;4.18;;;16.00;99.90;;;;;;5073294;28;20037;-47
2022/05/13 06:12:11;;;;;;;14.52;3.95;;;17.10;99.90;;;;;;5069971;28;20051;-47
2022/05/13 06:14:37;;;;;;;11.95;3.55;;;17.00;99.90;;;;;;5080450;28;20130;-46
2022/05/13 06:17:03;;;;;;;14.05;3.53;;;16.70;99.90;;;;;;5062367;28;20090;-47
2022/05/13 06:19:29;;;;;;;12.32;3.25;;;16.30;99.90;;;;;;5057118;28;20543;-47
2022/05/13 06:21:54;;;;;;;12.00;3.28;;;16.10;99.90;;;;;;5063297;28;20075;-48
2022/05/13 06:24:20;;;;;;;9.38;3.13;;;16.00;99.90;;;;;;5057905;28;20051;-47
2022/05/13 06:26:48;;;;;;;11.35;3.30;;;15.80;99.90;;;;;;5057426;28;20051;-49
2022/05/13 06:29:19;;;;;;;9.70;2.92;;;15.90;99.90;;;;;;5067871;28;20041;-49
2022/05/13 06:31:44;;;;;;;12.13;3.63;;;16.20;99.90;;;;;;5060187;28;20064;-49
2022/05/13 06:34:11;;;;;;;11.20;3.00;;;16.40;99.90;;;;;;5059757;28;20072;-48
2022/05/13 06:36:37;;;;;;;9.35;3.20;;;16.70;99.90;;;;;;5050191;28;20486;-50
2022/05/13 06:39:04;;;;;;;10.63;3.05;;;16.90;99.90;;;;;;5052323;28;20119;-48
2022/05/13 06:41:29;;;;;;;9.10;2.97;;;17.50;99.90;;;;;;5050611;28;20044;-50
2022/05/13 06:43:55;;;;;;;7.57;2.63;;;18.20;99.90;;;;;;5053972;28;20452;-49
2022/05/13 06:46:22;;;;;;;14.27;3.20;;;18.10;99.90;;;;;;5053071;28;20041;-50
2022/05/13 06:48:49;;;;;;;10.23;2.60;;;18.00;99.90;;;;;;5051077;28;20107;-47
2022/05/13 06:51:16;;;;;;;8.48;2.75;;;17.80;99.90;;;;;;5055071;28;20063;-52
2022/05/13 06:53:42;;;;;;;9.68;3.10;;;17.60;99.90;;;;;;5073242;28;20045;-49
2022/05/13 06:56:08;;;;;;;12.60;3.47;;;17.20;99.90;;;;;;5057801;28;20048;-52
2022/05/13 06:58:35;;;;;;;11.55;3.13;;;16.90;99.90;;;;;;5059533;28;20384;-51
2022/05/13 07:01:01;;;;;;;10.05;3.10;;;16.60;99.90;;;;;;5054831;28;20076;-48
2022/05/13 07:03:26;;;;;;;9.20;2.78;;;16.30;99.90;;;;;;5075644;28;20071;-50
2022/05/13 07:05:52;;;;;;;12.48;3.20;;;16.00;99.90;;;;;;5092509;28;20083;-48
2022/05/13 07:08:17;;;;;;;9.90;3.03;;;15.70;99.90;;;;;;5053969;28;20041;-48
2022/05/13 07:10:45;;;;;;;10.77;3.30;;;15.40;99.90;;;;;;5052207;28;20045;-48
2022/05/13 07:13:14;;;;;;;19.77;4.47;;;15.20;99.90;;;;;;5052292;28;20044;-51
2022/05/13 07:15:40;;;;;;;11.82;3.17;;;;;;;;;;5069891;28;20123;-47
2022/05/13 07:18:06;;;;;;;11.25;3.03;;;;;;;;;;5092413;28;20093;-47
2022/05/13 07:20:32;;;;;;;14.10;3.47;;;;;;;;;;5057146;28;20447;-47
2022/05/13 07:22:59;;;;;;;11.98;3.45;;;;;;;;;;5051500;28;20140;-49
2022/05/13 07:25:26;;;;;;;8.88;3.33;;;;;;;;;;5079030;28;20066;-49
2022/05/13 07:27:52;;;;;;;8.25;3.30;;;;;;;;;;5081655;28;20098;-49
2022/05/13 07:30:18;;;;;;;7.15;3.00;;;14.90;99.90;;;;;;5052167;28;20064;-47
2022/05/13 07:32:44;;;;;;;10.30;3.50;;;14.90;99.90;;;;;;5064352;28;20056;-49
2022/05/13 07:35:09;;;;;;;11.55;3.30;;;14.90;99.90;;;;;;5071785;28;20442;-48
2022/05/13 07:37:37;;;;;;;9.15;3.30;;;14.90;99.90;;;;;;5075595;28;20135;-49
2022/05/13 07:42:48;;;;;;;17.10;3.90;;;14.70;99.90;;;;;;5068531;28;20051;-48
2022/05/13 07:45:14;;;;;;;9.30;3.53;;;;;;;;;;5051711;28;20037;-49
2022/05/13 07:47:42;;;;;;;8.90;3.17;;;;;;;;;;5066979;28;20041;-48
2022/05/13 07:50:08;;;;;;;;;;;14.70;99.90;;;;;;5057822;28;20056;-48
2022/05/13 07:52:34;;;;;;;15.88;4.20;;;14.70;99.90;;;;;;5064217;28;19920;-48
2022/05/13 07:55:00;;;;;;;10.40;3.35;;;15.70;99.90;;;;;;5069977;28;20063;-47
2022/05/13 07:57:25;;;;;;;12.45;3.53;;;15.80;99.90;;;;;;5062109;28;20466;-49
2022/05/13 08:02:35;;;;;;;9.52;3.53;;;16.60;99.90;;;;;;5051286;28;20533;-52
2022/05/13 08:05:00;;;;;;;11.13;3.70;;;16.80;99.90;;;;;;5051308;28;20086;-49
2022/05/13 08:07:26;;;;;;;9.52;3.15;;;17.20;99.90;;;;;;5061765;28;20040;-59
2022/05/13 08:09:51;;;;;;;15.13;3.70;;;17.60;99.90;;;;;;5053097;28;20498;-45
2022/05/13 08:12:17;;;;;;;6.72;2.35;;;17.40;99.90;;;;;;5051078;28;20080;-48
2022/05/13 08:14:42;;;;;;;9.30;2.47;;;17.20;99.90;;;;;;5061250;28;20098;-48
2022/05/13 08:17:08;;;;;;;11.50;2.90;;;17.10;99.90;;;;;;5067478;28;20055;-46
2022/05/13 08:19:34;;;;;;;6.70;2.35;;;17.40;99.90;;;;;;5071270;28;20075;-46
2022/05/13 08:22:00;;;;;;;8.00;1.92;;;17.40;99.90;;;;;;5071232;28;20041;-46
2022/05/13 08:24:25;;;;;;;5.28;1.80;;;17.40;99.90;;;;;;5055496;28;20032;-47
2022/05/13 08:26:51;;;;;;;6.60;1.65;;;17.40;99.90;;;;;;5058583;28;20048;-45
2022/05/13 08:29:16;;;;;;;4.25;1.52;;;17.40;99.90;;;;;;5049566;28;20395;-46
2022/05/13 08:31:42;;;;;;;7.53;1.75;;;17.40;99.90;;;;;;5083380;28;20059;-46
2022/05/13 08:34:09;;;;;;;7.30;2.25;;;17.40;99.90;;;;;;5093204;28;20039;-46
2022/05/13 08:36:34;;;;;;;6.75;1.40;;;17.70;99.90;;;;;;5095146;28;20059;-46
2022/05/13 08:39:00;;;;;;;5.18;1.60;;;17.60;99.90;;;;;;5095144;28;20032;-46
2022/05/13 08:41:44;;;;;;;5.15;1.60;;;17.80;99.90;;;;;;5056004;28;20491;-48
2022/05/13 08:44:14;;;;;;;7.18;1.80;;;18.40;99.90;;;;;;5072457;28;20462;-47
2022/05/13 08:46:54;;;;;;;4.72;1.65;;;18.80;99.90;;;;;;5091939;28;20127;-48
2022/05/13 08:49:34;;;;;;;4.50;1.58;;;19.10;99.90;;;;;;5094882;28;20206;-49
2022/05/13 08:55:20;;;;;;;4.53;1.50;;;19.40;99.90;;;;;;5094358;28;20502;-46
2022/05/13 08:57:48;;;;;;;5.68;1.88;;;18.70;99.90;;;;;;5055210;28;20037;-46
2022/05/13 09:00:37;;;;;;;4.82;1.85;;;18.50;99.90;;;;;;5057232;28;20040;-47
2022/05/13 09:03:24;;;;;;;4.40;1.42;;;18.00;99.90;;;;;;5070535;28;20048;-46
2022/05/13 09:06:03;;;;;;;8.40;1.80;;;17.80;99.90;;;;;;5066696;28;20049;-47
2022/05/13 09:08:30;;;;;;;5.93;1.67;;;17.50;99.90;;;;;;5074501;28;20328;-49
2022/05/13 09:11:16;;;;;;;4.10;1.50;;;17.40;99.90;;;;;;5092525;28;20046;-47
2022/05/13 09:13:49;;;;;;;4.65;1.30;;;17.70;99.90;;;;;;5084870;28;20045;-47
2022/05/13 09:16:25;;;;;;;5.13;1.30;;;17.80;99.90;;;;;;5053489;28;20127;-47
2022/05/13 09:18:59;;;;;;;3.65;1.40;;;17.70;99.90;;;;;;5069684;28;20048;-49
2022/05/13 09:21:24;;;;;;;4.18;1.50;;;17.60;99.90;;;;;;5085210;28;20048;-45
2022/05/13 09:23:50;;;;;;;4.38;1.70;;;17.70;99.90;;;;;;5090550;28;20098;-45
2022/05/13 09:26:22;;;;;;;4.18;1.00;;;17.70;99.90;;;;;;5064605;28;20045;-46
2022/05/13 09:29:00;;;;;;;4.05;1.48;;;18.00;99.90;;;;;;5065562;28;20105;-46
2022/05/13 09:31:28;;;;;;;5.50;1.30;;;18.10;99.90;;;;;;5062044;28;20386;-50
2022/05/13 09:33:55;;;;;;;6.75;1.60;;;18.20;99.90;;;;;;5062107;28;20096;-49
2022/05/13 09:36:23;;;;;;;4.80;1.55;;;18.60;99.90;;;;;;5059721;28;20045;-46
2022/05/13 09:38:55;;;;;;;5.55;1.58;;;18.70;99.90;;;;;;5061338;28;20418;-48
2022/05/13 09:41:35;;;;;;;3.65;1.17;;;18.90;99.90;;;;;;5066054;28;20041;-47
2022/05/13 09:44:18;;;;;;;3.42;1.25;;;18.90;99.90;;;;;;5073311;28;20098;-46
2022/05/13 09:47:08;;;;;;;5.72;1.30;;;18.90;99.70;;;;;;5072831;28;20036;-50
2022/05/13 09:49:38;;;;;;;6.25;1.65;;;18.60;99.90;;;;;;5072775;28;20057;-47
2022/05/13 09:52:34;;;;;;;4.28;1.30;;;18.40;99.90;;;;;;5073181;28;20056;-48
2022/05/13 09:55:26;;;;;;;3.92;1.55;;;18.30;99.90;;;;;;5073638;28;20050;-47
2022/05/13 09:57:53;;;;;;;4.65;1.42;;;18.60;99.90;;;;;;5053649;28;20060;-49
2022/05/13 10:00:25;;;;;;;4.07;1.40;;;18.80;99.90;;;;;;5062668;28;20151;-45
2022/05/13 10:03:07;;;;;;;9.23;1.83;;;19.30;99.90;;;;;;5093809;28;20386;-47
2022/05/13 10:05:33;;;;;;;5.28;1.92;;;19.30;99.20;;;;;;5093429;28;20054;-47
2022/05/13 10:08:05;;;;;;;4.68;1.30;;;19.10;99.10;;;;;;5092233;28;20048;-47
2022/05/13 10:16:21;;;;;;;6.53;1.55;;;19.10;99.90;;;;;;5053139;28;20120;-47
2022/05/13 10:18:53;;;;;;;7.20;1.88;;;19.30;99.90;;;;;;5052211;28;20491;-47
2022/05/13 10:21:35;;;;;;;7.00;1.63;;;19.10;99.60;;;;;;5052242;28;20482;-50
2022/05/13 10:24:21;;;;;;;5.38;1.80;;;19.20;99.30;;;;;;5053140;28;20524;-50
2022/05/13 10:26:49;;;;;;;7.97;1.65;;;19.50;99.70;;;;;;5053081;28;20329;-52
2022/05/13 10:29:29;;;;;;;4.15;1.90;;;19.60;98.50;;;;;;5054125;28;20118;-48
2022/05/13 10:31:57;;;;;;;5.60;1.80;;;19.80;99.10;;;;;;5092993;28;20078;-50
2022/05/13 10:34:31;;;;;;;4.82;1.95;;;20.00;98.20;;;;;;5092998;28;20044;-48
2022/05/13 10:37:21;;;;;;;5.15;1.70;;;19.90;96.80;;;;;;5093074;28;20048;-47
2022/05/13 10:39:53;;;;;;;4.53;1.70;;;19.50;96.70;;;;;;5087338;28;20448;-47
2022/05/13 10:42:30;;;;;;;3.88;1.90;;;19.50;96.70;;;;;;5072542;28;20071;-46
2022/05/13 10:45:02;;;;;;;5.00;1.55;;;19.70;96.60;;;;;;5057734;28;20077;-46
2022/05/13 10:47:47;;;;;;;5.07;1.60;;;19.70;95.40;;;;;;5066440;28;20076;-46
2022/05/13 10:50:20;;;;;;;3.17;1.48;;;19.40;95.10;;;;;;5068777;28;20041;-48
2022/05/13 10:53:15;;;;;;;3.85;1.50;;;19.50;96.10;;;;;;5051817;28;20072;-47
2022/05/13 10:56:11;;;;;;;5.20;1.60;;;19.30;96.00;;;;;;5075048;28;20056;-47
2022/05/13 10:58:58;;;;;;;4.32;1.45;;;19.40;95.80;;;;;;5078976;28;20056;-48
2022/05/13 11:01:50;;;;;;;5.03;1.65;;;19.30;95.70;;;;;;5087248;28;20032;-47
2022/05/13 11:04:42;;;;;;;4.85;1.38;;;19.50;95.90;;;;;;5057365;28;20115;-48
2022/05/13 11:07:37;;;;;;;4.80;1.70;;;19.30;96.20;;;;;;5071746;28;20059;-46
2022/05/13 11:10:08;;;;;;;3.63;1.25;;;19.00;95.40;;;;;;5086759;28;20040;-50
2022/05/13 11:13:19;;;;;;;6.22;1.55;;;18.90;94.90;;;;;;5064741;28;20059;-46
2022/05/13 11:15:53;;;;;;;6.15;1.73;;;18.90;96.80;;;;;;5081964;28;20519;-46
2022/05/13 11:18:37;;;;;;;9.95;1.70;;;19.60;96.90;;;;;;5072763;28;20060;-46
2022/05/13 11:21:33;;;;;;;4.88;1.70;;;20.20;96.20;;;;;;5068335;28;20056;-47
2022/05/13 11:27:43;;;;;;;5.90;1.48;;;20.30;93.80;;;;;;5082390;28;20051;-49
2022/05/13 11:30:11;;;;;;;3.55;1.30;;;20.50;93.80;;;;;;5079919;28;20045;-46
2022/05/13 11:32:48;;;;;;;3.92;1.33;;;20.50;92.20;;;;;;5065070;28;20079;-48
2022/05/13 11:36:12;;;;;;;4.78;1.52;;;20.20;91.80;;;;;;5055745;28;20051;-47
2022/05/13 11:38:47;;;;;;;3.70;1.67;;;20.50;91.90;;;;;;5052638;28;20033;-50
2022/05/13 11:41:13;;;;;;;4.22;1.67;;;20.40;92.10;;;;;;5053462;28;20045;-47
2022/05/13 11:43:57;;;;;;;5.40;1.35;;;20.00;91.90;;;;;;5050589;28;20403;-47
2022/05/13 11:46:48;;;;;;;3.25;1.60;;;19.60;91.50;;;;;;5048230;28;20553;-46
2022/05/13 11:49:35;;;;;;;5.00;1.77;;;19.40;92.80;;;;;;5053899;28;20103;-47
2022/05/13 11:52:13;;;;;;;5.60;1.80;;;19.20;93.90;;;;;;5055723;28;20068;-48
2022/05/13 11:54:41;;;;;;;4.00;1.75;;;19.10;95.10;;;;;;5046551;28;20041;-46
2022/05/13 11:57:26;;;;;;;6.55;1.88;;;19.50;94.70;;;;;;5047010;28;20049;-46
2022/05/13 11:59:55;;;;;;;11.07;2.08;;;19.70;94.70;;;;;;5045945;28;20077;-50
2022/05/13 12:02:49;;;;;;;5.40;1.80;;;19.40;93.70;;;;;;5047083;28;20174;-46
2022/05/13 12:05:17;;;;;;;8.60;1.70;;;18.90;93.90;;;;;;5047063;28;20037;-53
2022/05/13 12:08:09;;;;;;;7.65;1.77;;;18.60;94.40;;;;;;5044916;28;20052;-47
2022/05/13 12:10:46;;;;;;;6.68;2.00;;;18.70;95.20;;;;;;5065623;28;20499;-46
2022/05/13 12:13:22;;;;;;;;;;;18.80;95.20;;;;;;5062957;28;20060;-47
2022/05/13 12:16:28;;;;;;;13.57;2.83;;;18.70;95.30;;;;;;5055947;28;20209;-47
2022/05/13 12:19:18;;;;;;;4.55;2.05;;;18.70;95.20;;;;;;5095503;28;20043;-49
2022/05/13 12:21:51;;;;;;;4.13;1.85;;;18.70;95.80;;;;;;5113313;28;20043;-46
2022/05/13 12:24:22;;;;;;;6.82;2.28;;;18.70;96.00;;;;;;5112992;28;20063;-47
2022/05/13 12:26:51;;;;;;;5.40;1.80;;;18.80;96.40;;;;;;5113111;28;20126;-49
2022/05/13 12:29:25;;;;;;;6.57;1.88;;;18.90;96.00;;;;;;5078271;28;20070;-46
2022/05/13 12:31:53;;;;;;;8.18;2.47;;;19.10;96.60;;;;;;5072395;28;20047;-50
2022/05/13 12:37:52;;;;;;;9.43;2.20;;;19.30;95.70;;;;;;5113036;28;20087;-48
2022/05/13 12:40:02;;;;;;;7.15;1.95;;;19.30;95.20;;;;;;5104478;28;20370;-47
2022/05/13 12:42:54;;;;;;;5.35;1.98;;;19.60;96.50;;;;;;5112766;28;20529;-47
2022/05/13 12:45:21;;;;;;;7.25;2.03;;;20.10;95.90;;;;;;5112776;28;20059;-48
2022/05/13 12:48:13;;;;;;;5.13;1.85;;;20.20;94.30;;;;;;5109368;28;20039;-49
2022/05/13 12:50:53;;;;;;;5.45;1.92;;;19.70;92.80;;;;;;5092170;28;20089;-47
2022/05/13 12:53:28;;;;;;;6.05;1.90;;;20.00;93.40;;;;;;5091879;28;20060;-47
2022/05/13 12:56:10;;;;;;;6.13;1.80;;;19.90;92.80;;;;;;5060368;28;20053;-48
2022/05/13 12:58:46;;;;;;;6.90;2.33;;;19.60;94.00;;;;;;5054344;28;20496;-47
2022/05/13 13:01:15;;;;;;;8.30;1.88;;;19.50;93.80;;;;;;5054431;28;20134;-48
2022/05/13 13:03:42;;;;;;;5.55;2.00;;;19.30;93.90;;;;;;5073259;28;20040;-47
2022/05/13 13:06:16;;;;;;;4.95;1.88;;;19.50;94.60;;;;;;5094547;28;20131;-48
2022/05/13 13:08:44;;;;;;;7.18;2.13;;;19.60;94.40;;;;;;5094529;28;20050;-47
2022/05/13 13:11:13;;;;;;;8.10;2.08;;;19.70;94.20;;;;;;5094241;28;20140;-48
2022/05/13 13:14:20;;;;;;;4.85;1.75;;;19.60;93.80;;;;;;5094310;28;20070;-48
2022/05/13 13:16:57;;;;;;;;;;;19.60;93.30;;;;;;5094936;28;20180;-48
2022/05/13 13:19:28;;;;;;;8.10;2.25;;;19.60;93.50;;;;;;5075372;28;19940;-50
2022/05/13 13:21:59;;;;;;;4.85;1.80;;;19.60;93.30;;;;;;5072820;28;20394;-47
2022/05/13 13:24:29;;;;;;;5.97;1.83;;;19.60;93.10;;;;;;5073912;28;20044;-48
2022/05/13 13:26:56;;;;;;;6.40;2.00;;;19.50;93.50;;;;;;5074106;28;20411;-46
2022/05/13 13:29:33;;;;;;;6.97;1.90;;;19.80;93.60;;;;;;5056020;28;20110;-48
2022/05/13 13:32:07;;;;;;;6.50;2.00;;;19.80;93.00;;;;;;5053832;28;20554;-48
2022/05/13 13:34:37;;;;;;;5.80;2.00;;;19.90;93.10;;;;;;5075853;28;20108;-46
2022/05/13 13:37:07;;;;;;;7.50;1.70;;;20.00;91.60;;;;;;5093997;28;20079;-47